Josita B — 9HA3758 — position and weather

sailwx.info

Track history (hours):
 
Tides and Currents Weather Stations Pressure Air Temp Water Temp Dewpoint Dewpoint Depression Visibility Wind Speed Wind Dir Waves Ship Positions

Josita B

Last reported at 2017-Nov-19 14:54 UTC. Time now 2017-Nov-20 06:23 UTC.
Position N 37°15' W 001°03'.

Length 170 m; draft 9.7 m.

Type: Cargo ship. MMSI: 229966000.

Date/timePositionNaut miles runAvg speedWind from/ knotsBaromVisibWave heightAir tempDewpointWater temp
2017-Nov-19 14:54N 37°15' W 001°03'717.1
2017-Nov-19 14:30N 37°19' W 000°57'917.0
2017-Nov-19 14:00N 37°25' W 000°49'916.9
2017-Nov-19 13:29N 37°31' W 000°41'816.8
2017-Nov-19 12:59N 37°36' W 000°32'816.9
2017-Nov-19 12:30N 37°43' W 000°27'1216.9
2017-Nov-19 11:50N 37°52' W 000°19'616.7
2017-Nov-19 11:30N 37°57' W 000°15'192 5.6
2017-Nov-18 01:08N 40°48' E 001°39'218.7
2017-Nov-18 01:00N 40°50' E 001°41'1019.0
2017-Nov-18 00:30N 40°57' E 001°49'1719.4
2017-Nov-17 23:39N 41°10' E 002°04'318.9
2017-Nov-17 23:30N 41°12' E 002°06'1 0.0
2017-Nov-16 15:53N 41°12' E 002°07'612.8
2017-Nov-16 15:27N 41°08' E 002°02'812.6
2017-Nov-16 14:50N 41°02' E 001°55'412.4
2017-Nov-16 14:29N 40°59' E 001°52'  
2017-Nov-14 09:39N 38°01' W 000°24'214.2
2017-Nov-14 09:30N 37°59' W 000°24'714.2
2017-Nov-14 08:59N 37°52' W 000°26'714.3
2017-Nov-14 08:30N 37°45' W 000°27'612.7
2017-Nov-14 08:00N 37°39' W 000°28'611.6
2017-Nov-14 07:30N 37°33' W 000°30'612.7
2017-Nov-14 07:00N 37°29' W 000°36'715.0
2017-Nov-14 06:30N 37°24' W 000°43'1014.9
2017-Nov-14 05:51N 37°18' W 000°52'62817.3
2017-Nov-12 17:29N 32°18' W 012°04'917.8
2017-Nov-12 16:58N 32°12' W 012°13'817.6
2017-Nov-12 16:30N 32°08' W 012°20'1117.7
2017-Nov-12 15:51N 32°01' W 012°31'2917.9
2017-Nov-12 14:15N 31°44' W 012°59'417.8
2017-Nov-12 14:00N 31°41' W 013°03'2217.7
2017-Nov-12 12:46N 31°28' W 013°23'517.9
2017-Nov-12 12:30N 31°25' W 013°28'3918.0
2017-Nov-12 10:21N 31°02' W 014°04'1218.1
2017-Nov-12 09:40N 30°55' W 014°16'418.1
2017-Nov-12 09:27N 30°52' W 014°19'1117.8
2017-Nov-12 08:50N 30°46' W 014°30'1017.8
2017-Nov-12 08:17N 30°40' W 014°39'517.7
2017-Nov-12 08:00N 30°37' W 014°43'917.9
2017-Nov-12 07:30N 30°32' W 014°52'918.0
2017-Nov-12 07:00N 30°26' W 015°00'917.7
2017-Nov-12 06:30N 30°21' W 015°08'1217.6
2017-Nov-12 05:49N 30°14' W 015°20'617.5
2017-Nov-12 05:30N 30°10' W 015°25'917.4
2017-Nov-12 05:00N 30°05' W 015°33'3017.2
2017-Nov-12 03:15N 29°47' W 016°01'417.2
2017-Nov-12 03:00N 29°45' W 016°05'917.1
2017-Nov-12 02:29N 29°40' W 016°13'917.0
2017-Nov-12 01:58N 29°34' W 016°21'817.2
2017-Nov-12 01:30N 29°30' W 016°28'917.3
2017-Nov-12 01:00N 29°24' W 016°36'917.2
2017-Nov-12 00:29N 29°19' W 016°45'1017.1
2017-Nov-11 23:55N 29°13' W 016°54'56 3.1
2017-Nov-11 06:01N 28°40' W 017°45'0 5.8
2017-Nov-11 06:00N 28°40' W 017°45'612.1
2017-Nov-11 05:30N 28°40' W 017°38'714.2
2017-Nov-11 05:00N 28°40' W 017°30'714.1
2017-Nov-11 04:31N 28°40' W 017°22'714.4
2017-Nov-11 04:00N 28°39' W 017°13'814.4
2017-Nov-11 03:29N 28°39' W 017°05'714.3
2017-Nov-11 03:01N 28°39' W 016°57'714.2
2017-Nov-11 02:31N 28°39' W 016°49'713.9
2017-Nov-11 02:00N 28°39' W 016°41'713.8
2017-Nov-11 01:30N 28°39' W 016°33'713.8
2017-Nov-11 01:00N 28°39' W 016°25'813.9
2017-Nov-11 00:26N 28°39' W 016°16'614.3
2017-Nov-11 00:00N 28°39' W 016°09'612.6
2017-Nov-10 23:30N 28°34' W 016°05'611.4
2017-Nov-10 23:00N 28°29' W 016°09'4 7.3
2017-Nov-10 22:28N 28°29' W 016°14'  
Track history (hours):
 
Tides and Currents Weather Stations Pressure Air Temp Water Temp Dewpoint Dewpoint Depression Visibility Wind Speed Wind Dir Waves Ship Positions

Josita B

Last reported at 2017-Nov-19 14:54 UTC. Time now 2017-Nov-20 06:23 UTC.
Position N 37°15' W 001°03'.

Length 170 m; draft 9.7 m.

Type: Cargo ship. MMSI: 229966000.

Date/timePositionNaut miles runAvg speedWind from/ knotsBaromVisibWave heightAir tempDewpointWater temp
2017-Nov-19 14:54N 37°15' W 001°03'717.1
2017-Nov-19 14:30N 37°19' W 000°57'917.0
2017-Nov-19 14:00N 37°25' W 000°49'916.9
2017-Nov-19 13:29N 37°31' W 000°41'816.8
2017-Nov-19 12:59N 37°36' W 000°32'816.9
2017-Nov-19 12:30N 37°43' W 000°27'1216.9
2017-Nov-19 11:50N 37°52' W 000°19'616.7
2017-Nov-19 11:30N 37°57' W 000°15'192 5.6
2017-Nov-18 01:08N 40°48' E 001°39'218.7
2017-Nov-18 01:00N 40°50' E 001°41'1019.0
2017-Nov-18 00:30N 40°57' E 001°49'1719.4
2017-Nov-17 23:39N 41°10' E 002°04'318.9
2017-Nov-17 23:30N 41°12' E 002°06'1 0.0
2017-Nov-16 15:53N 41°12' E 002°07'612.8
2017-Nov-16 15:27N 41°08' E 002°02'812.6
2017-Nov-16 14:50N 41°02' E 001°55'412.4
2017-Nov-16 14:29N 40°59' E 001°52'  
2017-Nov-14 09:39N 38°01' W 000°24'214.2
2017-Nov-14 09:30N 37°59' W 000°24'714.2
2017-Nov-14 08:59N 37°52' W 000°26'714.3
2017-Nov-14 08:30N 37°45' W 000°27'612.7
2017-Nov-14 08:00N 37°39' W 000°28'611.6
2017-Nov-14 07:30N 37°33' W 000°30'612.7
2017-Nov-14 07:00N 37°29' W 000°36'715.0
2017-Nov-14 06:30N 37°24' W 000°43'1014.9
2017-Nov-14 05:51N 37°18' W 000°52'62817.3
2017-Nov-12 17:29N 32°18' W 012°04'917.8
2017-Nov-12 16:58N 32°12' W 012°13'817.6
2017-Nov-12 16:30N 32°08' W 012°20'1117.7
2017-Nov-12 15:51N 32°01' W 012°31'2917.9
2017-Nov-12 14:15N 31°44' W 012°59'417.8
2017-Nov-12 14:00N 31°41' W 013°03'2217.7
2017-Nov-12 12:46N 31°28' W 013°23'517.9
2017-Nov-12 12:30N 31°25' W 013°28'3918.0
2017-Nov-12 10:21N 31°02' W 014°04'1218.1
2017-Nov-12 09:40N 30°55' W 014°16'418.1
2017-Nov-12 09:27N 30°52' W 014°19'1117.8
2017-Nov-12 08:50N 30°46' W 014°30'1017.8
2017-Nov-12 08:17N 30°40' W 014°39'517.7
2017-Nov-12 08:00N 30°37' W 014°43'917.9
2017-Nov-12 07:30N 30°32' W 014°52'918.0
2017-Nov-12 07:00N 30°26' W 015°00'917.7
2017-Nov-12 06:30N 30°21' W 015°08'1217.6
2017-Nov-12 05:49N 30°14' W 015°20'617.5
2017-Nov-12 05:30N 30°10' W 015°25'917.4
2017-Nov-12 05:00N 30°05' W 015°33'3017.2
2017-Nov-12 03:15N 29°47' W 016°01'417.2
2017-Nov-12 03:00N 29°45' W 016°05'917.1
2017-Nov-12 02:29N 29°40' W 016°13'917.0
2017-Nov-12 01:58N 29°34' W 016°21'817.2
2017-Nov-12 01:30N 29°30' W 016°28'917.3
2017-Nov-12 01:00N 29°24' W 016°36'917.2
2017-Nov-12 00:29N 29°19' W 016°45'1017.1
2017-Nov-11 23:55N 29°13' W 016°54'56 3.1
2017-Nov-11 06:01N 28°40' W 017°45'0 5.8
2017-Nov-11 06:00N 28°40' W 017°45'612.1
2017-Nov-11 05:30N 28°40' W 017°38'714.2
2017-Nov-11 05:00N 28°40' W 017°30'714.1
2017-Nov-11 04:31N 28°40' W 017°22'714.4
2017-Nov-11 04:00N 28°39' W 017°13'814.4
2017-Nov-11 03:29N 28°39' W 017°05'714.3
2017-Nov-11 03:01N 28°39' W 016°57'714.2
2017-Nov-11 02:31N 28°39' W 016°49'713.9
2017-Nov-11 02:00N 28°39' W 016°41'713.8
2017-Nov-11 01:30N 28°39' W 016°33'713.8
2017-Nov-11 01:00N 28°39' W 016°25'813.9
2017-Nov-11 00:26N 28°39' W 016°16'614.3
2017-Nov-11 00:00N 28°39' W 016°09'612.6
2017-Nov-10 23:30N 28°34' W 016°05'611.4
2017-Nov-10 23:00N 28°29' W 016°09'4 7.3
2017-Nov-10 22:28N 28°29' W 016°14'  

Dump ship's entire track history